createdAt,value
2022-11-27T00:01:21.442Z,99703.84
2022-11-27T00:03:50.022Z,99709.16
2022-11-27T00:06:20.665Z,99706.50
2022-11-27T00:08:48.946Z,99707.16
2022-11-27T00:11:19.952Z,99701.84
2022-11-27T00:13:47.539Z,99704.34
2022-11-27T00:16:15.901Z,99705.50
2022-11-27T00:18:43.741Z,99705.34
2022-11-27T00:21:24.180Z,99707.16
2022-11-27T00:23:53.282Z,99708.81
2022-11-27T00:26:21.772Z,99708.16
2022-11-27T00:28:49.359Z,99706.34
2022-11-27T00:31:23.269Z,99708.81
2022-11-27T00:33:54.492Z,99705.19
2022-11-27T00:36:23.245Z,99706.81
2022-11-27T00:38:51.279Z,99711.47
2022-11-27T00:41:22.264Z,99712.50
2022-11-27T00:43:49.855Z,99712.50
2022-11-27T00:46:24.030Z,99712.50
2022-11-27T00:48:55.736Z,99709.16
2022-11-27T00:51:24.602Z,99709.16
2022-11-27T00:53:53.346Z,99708.16
2022-11-27T00:56:26.620Z,99710.00
2022-11-27T00:58:54.420Z,99705.69
2022-11-27T01:01:34.684Z,99707.50
2022-11-27T01:04:03.992Z,99706.50
2022-11-27T01:06:32.114Z,99696.00
2022-11-27T01:09:00.007Z,99701.19
2022-11-27T01:11:30.371Z,99708.16
2022-11-27T01:14:00.279Z,99707.50
2022-11-27T01:16:29.919Z,99709.16
2022-11-27T01:18:59.110Z,99714.50
2022-11-27T01:21:30.316Z,99709.16
2022-11-27T01:23:58.871Z,99708.50
2022-11-27T01:26:26.643Z,99704.19
2022-11-27T01:28:55.785Z,99709.16
2022-11-27T01:31:29.698Z,99711.16
2022-11-27T01:33:59.244Z,99702.19
2022-11-27T01:36:27.409Z,99698.00
2022-11-27T01:38:54.832Z,99694.34
2022-11-27T01:41:35.095Z,99702.34
2022-11-27T01:44:23.880Z,99697.84
2022-11-27T01:46:55.288Z,99691.03
2022-11-27T01:49:35.583Z,99694.34
2022-11-27T01:52:12.018Z,99698.19
2022-11-27T01:54:59.883Z,99697.19
2022-11-27T01:57:39.095Z,99705.16
2022-11-27T02:00:09.052Z,99701.69
2022-11-27T02:02:36.746Z,99704.19
2022-11-27T02:05:04.463Z,99703.31
2022-11-27T02:07:32.246Z,99704.34
2022-11-27T02:09:59.728Z,99703.50
2022-11-27T02:12:38.854Z,99704.50
2022-11-27T02:15:21.294Z,99707.16
2022-11-27T02:18:07.208Z,99708.84
2022-11-27T02:20:52.875Z,99702.50
2022-11-27T02:23:58.976Z,99702.50
2022-11-27T02:27:04.640Z,99702.84
2022-11-27T02:29:34.726Z,99699.16
2022-11-27T02:32:10.977Z,99697.53
2022-11-27T02:35:11.432Z,99698.34
2022-11-27T02:37:51.036Z,99706.19
2022-11-27T02:40:38.031Z,99709.00
2022-11-27T02:43:20.876Z,99708.16
2022-11-27T02:45:51.176Z,99709.81
2022-11-27T02:48:30.854Z,99714.47
2022-11-27T02:50:58.537Z,99720.47
2022-11-27T02:53:30.975Z,99717.13
2022-11-27T02:56:00.467Z,99723.28
2022-11-27T02:58:29.780Z,99724.28
2022-11-27T03:00:58.067Z,99722.47
2022-11-27T03:03:32.612Z,99724.13
2022-11-27T03:06:11.181Z,99721.63
2022-11-27T03:08:56.829Z,99724.44
2022-11-27T03:11:25.078Z,99727.78
2022-11-27T03:13:58.809Z,99723.47
2022-11-27T03:16:57.199Z,99725.31
2022-11-27T03:19:40.208Z,99724.44
2022-11-27T03:22:07.940Z,99733.44
2022-11-27T03:24:36.064Z,99728.13
2022-11-27T03:27:06.679Z,99728.13
2022-11-27T03:29:47.787Z,99723.78
2022-11-27T03:32:16.656Z,99722.81
2022-11-27T03:34:44.801Z,99725.63
2022-11-27T03:37:12.449Z,99724.78
2022-11-27T03:39:40.300Z,99731.94
2022-11-27T03:42:23.451Z,99726.44
2022-11-27T03:45:04.127Z,99722.94
2022-11-27T03:47:40.561Z,99716.81
2022-11-27T03:50:21.703Z,99715.78
2022-11-27T03:53:10.791Z,99719.47
2022-11-27T03:55:48.511Z,99721.13
2022-11-27T03:58:32.756Z,99723.13
2022-11-27T04:01:02.813Z,99721.47
2022-11-27T04:03:31.243Z,99723.13
2022-11-27T04:05:58.536Z,99716.97
2022-11-27T04:08:26.361Z,99712.66
2022-11-27T04:10:53.651Z,99718.78
2022-11-27T04:13:21.481Z,99727.59
2022-11-27T04:15:49.030Z,99726.78
2022-11-27T04:18:16.641Z,99732.09
2022-11-27T04:20:44.123Z,99725.09
2022-11-27T04:23:11.743Z,99713.63
2022-11-27T04:25:39.008Z,99715.47
2022-11-27T04:28:06.736Z,99714.63
2022-11-27T04:30:34.307Z,99724.47
2022-11-27T04:33:02.984Z,99718.13
2022-11-27T04:35:30.254Z,99721.81
2022-11-27T04:37:58.150Z,99716.47
2022-11-27T04:40:25.403Z,99724.28
2022-11-27T04:42:53.044Z,99715.63
2022-11-27T04:45:20.478Z,99723.44
2022-11-27T04:47:48.128Z,99719.78
2022-11-27T04:50:15.449Z,99718.13
2022-11-27T04:52:43.115Z,99726.13
2022-11-27T04:55:10.472Z,99720.94
2022-11-27T04:57:38.704Z,99724.28
2022-11-27T05:00:07.429Z,99715.63
2022-11-27T05:02:35.191Z,99724.47
2022-11-27T05:05:02.907Z,99729.13
2022-11-27T05:07:31.111Z,99724.78
2022-11-27T05:09:58.449Z,99721.13
2022-11-27T05:12:26.727Z,99718.47
2022-11-27T05:14:54.007Z,99717.63
2022-11-27T05:17:21.645Z,99724.78
2022-11-27T05:19:48.913Z,99718.47
2022-11-27T05:22:16.497Z,99707.81
2022-11-27T05:24:43.710Z,99708.81
2022-11-27T05:27:11.302Z,99703.47
2022-11-27T05:29:40.231Z,99699.84
2022-11-27T05:32:07.894Z,99696.31
2022-11-27T05:34:35.146Z,99699.16
2022-11-27T05:37:02.763Z,99699.16
2022-11-27T05:39:30.087Z,99706.13
2022-11-27T05:41:57.674Z,99704.50
2022-11-27T05:44:26.819Z,99720.47
2022-11-27T05:46:54.522Z,99721.28
2022-11-27T05:49:21.865Z,99717.94
2022-11-27T05:51:51.650Z,99707.81
2022-11-27T05:54:19.507Z,99705.47
2022-11-27T05:56:47.206Z,99706.97
2022-11-27T05:59:14.977Z,99697.50
2022-11-27T06:01:43.116Z,99704.50
2022-11-27T06:04:10.539Z,99713.47
2022-11-27T06:06:38.195Z,99701.16
2022-11-27T06:09:10.892Z,99702.81
2022-11-27T06:11:41.605Z,99704.81
2022-11-27T06:14:09.547Z,99696.81
2022-11-27T06:16:37.425Z,99702.13
2022-11-27T06:19:04.756Z,99694.97
2022-11-27T06:21:32.265Z,99694.97
2022-11-27T06:24:00.244Z,99693.16
2022-11-27T06:26:30.234Z,99696.66
2022-11-27T06:28:58.903Z,99699.47
2022-11-27T06:31:29.990Z,99703.16
2022-11-27T06:33:58.732Z,99702.97
2022-11-27T06:36:33.057Z,99710.13
2022-11-27T06:39:00.893Z,99699.47
2022-11-27T06:41:29.118Z,99705.63
2022-11-27T06:43:58.515Z,99707.66
2022-11-27T06:46:27.432Z,99708.47
2022-11-27T06:48:55.116Z,99712.97
2022-11-27T06:51:25.333Z,99701.47
2022-11-27T06:53:53.843Z,99712.13
2022-11-27T06:56:26.721Z,99703.16
2022-11-27T06:58:56.508Z,99706.78
2022-11-27T07:01:26.226Z,99710.47
2022-11-27T07:03:54.137Z,99724.44
2022-11-27T07:06:24.664Z,99727.25
2022-11-27T07:08:53.027Z,99734.25
2022-11-27T07:11:23.840Z,99728.06
2022-11-27T07:13:51.890Z,99728.06
2022-11-27T07:16:19.648Z,99730.44
2022-11-27T07:18:49.444Z,99729.75
2022-11-27T07:21:17.643Z,99735.09
2022-11-27T07:23:45.576Z,99737.75
2022-11-27T07:26:15.843Z,99738.72
2022-11-27T07:28:43.865Z,99738.72
2022-11-27T07:31:14.558Z,99745.72
2022-11-27T07:33:41.859Z,99741.22
2022-11-27T07:36:22.027Z,99738.72
2022-11-27T07:38:49.544Z,99728.06
2022-11-27T07:41:17.676Z,99728.06
2022-11-27T07:43:45.676Z,99725.41
2022-11-27T07:46:17.037Z,99726.44
2022-11-27T07:48:44.411Z,99734.41
2022-11-27T07:51:15.160Z,99739.59
2022-11-27T07:53:42.882Z,99737.91
2022-11-27T07:56:13.256Z,99726.44
2022-11-27T07:58:40.618Z,99731.75
2022-11-27T08:01:10.868Z,99733.75
2022-11-27T08:03:38.227Z,99730.06
2022-11-27T08:06:13.997Z,99728.25
2022-11-27T08:08:41.289Z,99737.91
2022-11-27T08:11:17.940Z,99740.72
2022-11-27T08:13:45.180Z,99737.06
2022-11-27T08:16:12.818Z,99730.06
2022-11-27T08:18:40.113Z,99730.06
2022-11-27T08:21:07.702Z,99729.09
2022-11-27T08:23:35.390Z,99730.06
2022-11-27T08:26:05.799Z,99738.06
2022-11-27T08:28:33.100Z,99736.25
2022-11-27T08:31:03.143Z,99736.25
2022-11-27T08:33:32.633Z,99741.56
2022-11-27T08:36:00.503Z,99737.06
2022-11-27T08:38:27.848Z,99731.75
2022-11-27T08:41:02.355Z,99736.25
2022-11-27T08:43:30.388Z,99742.41
2022-11-27T08:45:58.732Z,99738.91
2022-11-27T08:48:26.139Z,99739.59
2022-11-27T08:50:53.747Z,99735.25
2022-11-27T08:53:21.206Z,99739.75
2022-11-27T08:55:48.785Z,99736.25
2022-11-27T08:58:16.682Z,99738.72
2022-11-27T09:00:44.276Z,99740.56
2022-11-27T09:03:12.458Z,99735.25
2022-11-27T09:05:46.227Z,99733.41
2022-11-27T09:08:20.021Z,99737.91
2022-11-27T09:10:47.577Z,99742.06
2022-11-27T09:13:15.641Z,99732.44
2022-11-27T09:15:43.187Z,99731.75
2022-11-27T09:18:10.796Z,99735.38
2022-11-27T09:20:38.284Z,99740.72
2022-11-27T09:23:08.904Z,99737.06
2022-11-27T09:25:39.607Z,99736.06
2022-11-27T09:28:07.682Z,99733.59
2022-11-27T09:30:35.195Z,99730.06
2022-11-27T09:33:02.488Z,99728.41
2022-11-27T09:35:30.126Z,99732.06
2022-11-27T09:37:57.443Z,99732.06
2022-11-27T09:40:25.219Z,99732.06
2022-11-27T09:43:06.113Z,99722.44
2022-11-27T09:45:37.062Z,99725.09
2022-11-27T09:48:14.575Z,99728.72
2022-11-27T09:50:50.306Z,99727.75
2022-11-27T09:53:28.114Z,99732.25
2022-11-27T09:55:59.079Z,99728.72
2022-11-27T09:58:35.139Z,99725.09
2022-11-27T10:01:12.795Z,99722.44
2022-11-27T10:03:42.449Z,99720.75
2022-11-27T10:06:28.533Z,99719.09
2022-11-27T10:09:12.606Z,99720.09
2022-11-27T10:12:00.632Z,99710.44
2022-11-27T10:14:37.000Z,99708.59
2022-11-27T10:17:20.370Z,99704.13
2022-11-27T10:20:00.592Z,99704.13
2022-11-27T10:22:45.819Z,99702.13
2022-11-27T10:25:15.701Z,99698.81
2022-11-27T10:27:55.371Z,99695.16
2022-11-27T10:30:22.719Z,99695.16
2022-11-27T10:32:56.318Z,99697.97
2022-11-27T10:35:26.146Z,99684.66
2022-11-27T10:38:07.474Z,99681.16
2022-11-27T10:40:43.000Z,99677.84
2022-11-27T10:43:22.632Z,99682.78
2022-11-27T10:45:57.634Z,99671.31
2022-11-27T10:48:27.587Z,99673.13
2022-11-27T10:50:55.294Z,99665.84
2022-11-27T10:53:34.696Z,99672.84
2022-11-27T10:56:04.913Z,99666.53
2022-11-27T10:58:39.919Z,99668.34
2022-11-27T11:01:15.515Z,99665.34
2022-11-27T11:03:43.577Z,99661.88
2022-11-27T11:06:30.554Z,99668.88
2022-11-27T11:09:23.404Z,99666.88
2022-11-27T11:11:51.895Z,99658.72
2022-11-27T11:14:25.313Z,99659.53
2022-11-27T11:16:54.849Z,99664.88
2022-11-27T11:19:24.248Z,99660.88
2022-11-27T11:21:52.433Z,99659.06
2022-11-27T11:24:31.428Z,99647.56
2022-11-27T11:27:12.324Z,99645.44
2022-11-27T11:29:45.950Z,99644.25
2022-11-27T11:32:16.358Z,99641.75
2022-11-27T11:34:47.393Z,99637.28
2022-11-27T11:37:26.199Z,99638.09
2022-11-27T11:40:22.084Z,99633.31
2022-11-27T11:42:54.453Z,99629.63
2022-11-27T11:45:22.547Z,99625.97
2022-11-27T11:47:58.105Z,99613.31
2022-11-27T11:50:31.706Z,99615.00
2022-11-27T11:53:05.376Z,99615.00
2022-11-27T11:55:55.081Z,99616.63
2022-11-27T11:58:42.305Z,99617.50
2022-11-27T12:01:27.455Z,99612.66
2022-11-27T12:04:32.669Z,99614.31
2022-11-27T12:07:39.096Z,99617.66
2022-11-27T12:10:27.956Z,99609.66
2022-11-27T12:13:04.599Z,99608.66
2022-11-27T12:15:42.091Z,99609.47
2022-11-27T12:18:25.531Z,99604.16
2022-11-27T12:21:11.448Z,99599.84
2022-11-27T12:24:14.475Z,99596.00
2022-11-27T12:27:01.090Z,99588.69
2022-11-27T12:29:40.874Z,99593.66
2022-11-27T12:32:26.320Z,99584.34
2022-11-27T12:35:27.505Z,99586.03
2022-11-27T12:38:12.928Z,99593.00
2022-11-27T12:40:40.378Z,99584.03
2022-11-27T12:43:10.651Z,99588.53
2022-11-27T12:45:52.020Z,99580.53
2022-11-27T12:48:32.195Z,99586.50
2022-11-27T12:51:22.120Z,99585.34
2022-11-27T12:54:03.023Z,99578.03
2022-11-27T12:56:42.190Z,99575.69
2022-11-27T12:59:19.695Z,99582.66
2022-11-27T13:02:18.648Z,99576.19
2022-11-27T13:04:57.744Z,99580.34
2022-11-27T13:07:40.030Z,99579.97
2022-11-27T13:10:21.582Z,99584.97
2022-11-27T13:13:09.571Z,99582.13
2022-11-27T13:15:56.086Z,99581.97
2022-11-27T13:18:33.944Z,99577.31
2022-11-27T13:21:05.285Z,99580.63
2022-11-27T13:23:33.593Z,99587.59
2022-11-27T13:26:27.567Z,99588.09
2022-11-27T13:29:24.588Z,99584.91
2022-11-27T13:31:56.647Z,99588.25
2022-11-27T13:34:27.596Z,99586.91
2022-11-27T13:36:59.139Z,99585.88
2022-11-27T13:39:34.237Z,99590.91
2022-11-27T13:42:18.306Z,99594.91
2022-11-27T13:44:55.961Z,99588.56
2022-11-27T13:47:28.034Z,99588.56
2022-11-27T13:50:18.753Z,99591.88
2022-11-27T13:53:07.325Z,99591.72
2022-11-27T13:55:37.940Z,99588.22
2022-11-27T13:58:07.230Z,99583.88
2022-11-27T14:00:38.580Z,99588.56
2022-11-27T14:03:10.587Z,99584.91
2022-11-27T14:05:47.469Z,99581.22
2022-11-27T14:08:19.475Z,99582.25
2022-11-27T14:10:52.042Z,99577.56
2022-11-27T14:13:24.880Z,99576.91
2022-11-27T14:16:02.005Z,99573.41
2022-11-27T14:18:30.656Z,99568.91
2022-11-27T14:21:02.457Z,99573.41
2022-11-27T14:23:49.206Z,99574.56
2022-11-27T14:26:16.879Z,99577.06
2022-11-27T14:28:48.768Z,99571.91
2022-11-27T14:31:35.783Z,99576.25
2022-11-27T14:34:23.097Z,99576.59
2022-11-27T14:36:54.394Z,99572.09
2022-11-27T14:39:36.701Z,99579.41
2022-11-27T14:42:18.766Z,99576.91
2022-11-27T14:44:46.071Z,99579.56
2022-11-27T14:47:20.295Z,99575.41
2022-11-27T14:49:56.165Z,99577.22
2022-11-27T14:52:24.285Z,99578.75
2022-11-27T14:54:52.547Z,99573.59
2022-11-27T14:57:26.694Z,99571.91
2022-11-27T15:00:24.140Z,99569.44
2022-11-27T15:02:51.950Z,99577.22
2022-11-27T15:05:26.997Z,99571.91
2022-11-27T15:07:57.879Z,99568.59
2022-11-27T15:10:40.673Z,99574.56
2022-11-27T15:13:21.295Z,99565.44
2022-11-27T15:15:56.949Z,99566.94
2022-11-27T15:18:25.768Z,99563.09
2022-11-27T15:20:55.056Z,99556.28
2022-11-27T15:23:27.866Z,99558.56
2022-11-27T15:26:16.770Z,99554.63
2022-11-27T15:28:57.111Z,99549.97
2022-11-27T15:31:27.561Z,99547.09
2022-11-27T15:33:56.371Z,99552.25
2022-11-27T15:36:24.057Z,99544.94
2022-11-27T15:38:51.638Z,99542.44
2022-11-27T15:41:20.561Z,99545.09
2022-11-27T15:43:48.384Z,99540.41
2022-11-27T15:46:22.445Z,99529.63
2022-11-27T15:48:50.200Z,99530.59
2022-11-27T15:51:17.635Z,99528.94
2022-11-27T15:53:45.191Z,99518.28
2022-11-27T15:56:12.508Z,99516.31
2022-11-27T15:58:41.587Z,99524.13
2022-11-27T16:01:10.250Z,99522.28
2022-11-27T16:03:39.799Z,99523.28
2022-11-27T16:06:08.869Z,99528.09
2022-11-27T16:08:36.600Z,99530.59
2022-11-27T16:11:07.681Z,99530.06
2022-11-27T16:13:35.249Z,99520.06
2022-11-27T16:16:04.304Z,99511.72
2022-11-27T16:18:32.961Z,99519.53
2022-11-27T16:21:10.154Z,99525.53
2022-11-27T16:23:39.272Z,99520.03
2022-11-27T16:26:08.054Z,99519.84
2022-11-27T16:28:35.729Z,99518.84
2022-11-27T16:31:07.702Z,99511.50
2022-11-27T16:33:35.379Z,99506.81
2022-11-27T16:36:12.852Z,99501.50
2022-11-27T16:38:41.884Z,99500.47
2022-11-27T16:41:12.302Z,99504.00
2022-11-27T16:43:42.621Z,99502.81
2022-11-27T16:46:15.455Z,99495.78
2022-11-27T16:48:44.236Z,99490.78
2022-11-27T16:51:15.952Z,99497.06
2022-11-27T16:53:45.835Z,99496.22
2022-11-27T16:56:15.322Z,99494.22
2022-11-27T16:58:44.295Z,99489.72
2022-11-27T17:01:15.970Z,99492.00
2022-11-27T17:03:43.916Z,99487.69
2022-11-27T17:06:20.673Z,99479.88
2022-11-27T17:08:48.757Z,99479.03
2022-11-27T17:11:20.191Z,99480.88
2022-11-27T17:13:48.652Z,99483.72
2022-11-27T17:16:16.386Z,99479.41
2022-11-27T17:18:47.848Z,99476.75
2022-11-27T17:21:18.530Z,99473.22
2022-11-27T17:23:46.914Z,99477.72
2022-11-27T17:26:16.507Z,99467.06
2022-11-27T17:28:44.572Z,99456.41
2022-11-27T17:31:14.912Z,99466.06
2022-11-27T17:33:43.038Z,99463.91
2022-11-27T17:36:10.928Z,99466.59
2022-11-27T17:38:38.664Z,99460.44
2022-11-27T17:41:11.401Z,99454.94
2022-11-27T17:43:39.806Z,99450.59
2022-11-27T17:46:08.785Z,99453.44
2022-11-27T17:48:38.081Z,99453.63
2022-11-27T17:51:06.487Z,99450.78
2022-11-27T17:53:34.616Z,99448.94
2022-11-27T17:56:12.613Z,99453.09
2022-11-27T17:58:40.603Z,99453.09
2022-11-27T18:01:16.437Z,99449.75
2022-11-27T18:03:47.204Z,99449.97
2022-11-27T18:06:17.814Z,99456.44
2022-11-27T18:08:46.880Z,99452.78
2022-11-27T18:11:19.622Z,99448.13
2022-11-27T18:13:48.599Z,99449.09
2022-11-27T18:16:20.408Z,99450.13
2022-11-27T18:18:49.349Z,99442.78
2022-11-27T18:21:19.518Z,99441.13
2022-11-27T18:24:21.435Z,99443.13
2022-11-27T18:27:07.684Z,99441.47
2022-11-27T18:29:24.967Z,99436.97
2022-11-27T18:31:53.536Z,99446.44
2022-11-27T18:34:21.214Z,99445.63
2022-11-27T18:36:48.521Z,99445.63
2022-11-27T18:39:16.440Z,99434.97
2022-11-27T18:41:44.100Z,99444.81
2022-11-27T18:44:12.024Z,99449.31
2022-11-27T18:46:39.439Z,99443.78
2022-11-27T18:49:07.070Z,99441.31
2022-11-27T18:51:34.490Z,99437.78
2022-11-27T18:54:02.126Z,99435.78
2022-11-27T18:56:31.185Z,99431.63
2022-11-27T18:59:06.398Z,99421.78
2022-11-27T19:01:41.470Z,99416.47
2022-11-27T19:04:11.450Z,99415.63
2022-11-27T19:06:42.087Z,99417.47
2022-11-27T19:09:12.186Z,99413.16
2022-11-27T19:11:40.447Z,99410.69
2022-11-27T19:14:09.077Z,99406.16
2022-11-27T19:16:42.045Z,99406.53
2022-11-27T19:19:38.966Z,99403.66
2022-11-27T19:21:57.552Z,99400.19
2022-11-27T19:24:25.154Z,99400.84
2022-11-27T19:26:52.399Z,99391.16
2022-11-27T19:29:19.939Z,99388.88
2022-11-27T19:31:50.285Z,99385.56
2022-11-27T19:34:18.036Z,99374.88
2022-11-27T19:36:45.358Z,99376.91
2022-11-27T19:39:15.130Z,99378.56
2022-11-27T19:41:43.354Z,99371.56
2022-11-27T19:44:12.716Z,99375.44
2022-11-27T19:46:40.950Z,99379.94
2022-11-27T19:49:16.738Z,99377.28
2022-11-27T19:51:44.785Z,99370.63
2022-11-27T19:54:13.649Z,99376.78
2022-11-27T19:56:42.640Z,99368.97
2022-11-27T19:59:12.251Z,99374.28
2022-11-27T20:01:40.684Z,99363.63
2022-11-27T20:04:11.190Z,99363.63
2022-11-27T20:06:39.247Z,99373.47
2022-11-27T20:09:07.222Z,99364.66
2022-11-27T20:11:38.058Z,99369.16
2022-11-27T20:14:06.770Z,99367.31
2022-11-27T20:16:35.705Z,99366.66
2022-11-27T20:19:05.968Z,99364.00
2022-11-27T20:21:34.104Z,99360.69
2022-11-27T20:24:02.098Z,99363.19
2022-11-27T20:26:30.640Z,99366.00
2022-11-27T20:28:59.112Z,99359.50
2022-11-27T20:31:30.148Z,99363.19
2022-11-27T20:34:00.888Z,99365.03
2022-11-27T20:36:30.068Z,99357.03
2022-11-27T20:38:59.563Z,99364.00
2022-11-27T20:41:27.657Z,99366.00
2022-11-27T20:44:00.351Z,99365.19
2022-11-27T20:46:28.489Z,99362.34
2022-11-27T20:48:56.998Z,99371.34
2022-11-27T20:51:28.735Z,99359.03
2022-11-27T20:53:59.043Z,99362.53
2022-11-27T20:56:26.525Z,99368.03
2022-11-27T20:58:54.920Z,99361.38
2022-11-27T21:01:26.461Z,99356.44
2022-11-27T21:03:55.866Z,99352.06
2022-11-27T21:06:26.452Z,99356.72
2022-11-27T21:08:54.659Z,99345.41
2022-11-27T21:11:27.762Z,99349.09
2022-11-27T21:14:01.749Z,99348.09
2022-11-27T21:16:31.483Z,99358.13
2022-11-27T21:19:05.235Z,99350.94
2022-11-27T21:21:33.702Z,99352.13
2022-11-27T21:24:01.447Z,99350.47
2022-11-27T21:26:29.119Z,99338.97
2022-11-27T21:28:56.960Z,99350.47
2022-11-27T21:31:26.687Z,99345.50
2022-11-27T21:33:56.692Z,99341.00
2022-11-27T21:36:28.180Z,99333.16
2022-11-27T21:38:59.997Z,99336.84
2022-11-27T21:41:28.492Z,99343.16
2022-11-27T21:43:58.426Z,99332.53
2022-11-27T21:46:26.924Z,99333.53
2022-11-27T21:48:57.526Z,99326.53
2022-11-27T21:51:26.299Z,99326.53
2022-11-27T21:53:57.799Z,99324.91
2022-11-27T21:56:27.876Z,99311.75
2022-11-27T21:58:55.685Z,99300.25
2022-11-27T22:01:24.980Z,99294.28
2022-11-27T22:03:56.836Z,99294.13
2022-11-27T22:06:27.584Z,99291.63
2022-11-27T22:08:58.084Z,99290.59
2022-11-27T22:11:28.679Z,99276.66
2022-11-27T22:14:05.882Z,99266.00
2022-11-27T22:16:42.760Z,99264.34
2022-11-27T22:19:12.247Z,99262.69
2022-11-27T22:21:39.553Z,99257.53
2022-11-27T22:24:12.205Z,99247.06
2022-11-27T22:26:43.988Z,99248.91
2022-11-27T22:29:12.386Z,99240.91
2022-11-27T22:31:40.641Z,99248.06
2022-11-27T22:34:08.217Z,99244.38
2022-11-27T22:36:35.541Z,99244.38
2022-11-27T22:39:06.476Z,99241.06
2022-11-27T22:41:36.520Z,99241.06
2022-11-27T22:44:08.882Z,99248.06
2022-11-27T22:46:36.654Z,99245.41
2022-11-27T22:49:06.301Z,99244.75
2022-11-27T22:51:35.727Z,99248.41
2022-11-27T22:54:06.027Z,99248.41
2022-11-27T22:56:34.050Z,99253.75
2022-11-27T22:59:30.491Z,99254.75
2022-11-27T23:01:49.520Z,99255.75
2022-11-27T23:04:17.135Z,99261.06
2022-11-27T23:06:47.894Z,99261.94
2022-11-27T23:09:17.772Z,99256.78
2022-11-27T23:11:45.944Z,99250.78
2022-11-27T23:14:13.498Z,99259.44
2022-11-27T23:16:40.819Z,99250.78
2022-11-27T23:19:09.110Z,99247.47
2022-11-27T23:21:37.693Z,99252.81
2022-11-27T23:24:07.301Z,99244.00
2022-11-27T23:26:35.004Z,99244.97
2022-11-27T23:29:02.742Z,99238.84
2022-11-27T23:31:36.086Z,99246.00
2022-11-27T23:34:07.373Z,99238.19
2022-11-27T23:36:35.540Z,99238.84
2022-11-27T23:39:05.463Z,99243.34
2022-11-27T23:41:33.025Z,99242.50
2022-11-27T23:44:01.588Z,99244.16
2022-11-27T23:46:30.118Z,99249.84
2022-11-27T23:48:59.817Z,99257.84
2022-11-27T23:51:30.193Z,99249.84
2022-11-27T23:53:58.645Z,99255.19
2022-11-27T23:56:31.342Z,99247.34
2022-11-27T23:59:00.021Z,99254.53
